createdAt,value
2022-12-27T00:00:34.931Z,19.62
2022-12-27T00:01:38.125Z,21.23
2022-12-27T00:02:41.088Z,27.73
2022-12-27T00:03:44.005Z,32.38
2022-12-27T00:04:46.846Z,31.90
2022-12-27T00:05:49.559Z,59.47
2022-12-27T00:06:52.551Z,20.45
2022-12-27T00:07:55.731Z,18.00
2022-12-27T00:08:58.608Z,23.90
2022-12-27T00:10:02.163Z,35.53
2022-12-27T00:11:10.701Z,44.72
2022-12-27T00:12:13.747Z,42.97
2022-12-27T00:13:16.411Z,29.30
2022-12-27T00:14:19.174Z,25.20
2022-12-27T00:15:21.874Z,20.60
2022-12-27T00:16:25.013Z,23.07
2022-12-27T00:17:28.836Z,21.58
2022-12-27T00:18:32.127Z,20.77
2022-12-27T00:19:34.850Z,20.75
2022-12-27T00:20:37.632Z,20.35
2022-12-27T00:21:40.339Z,21.08
2022-12-27T00:22:43.611Z,31.02
2022-12-27T00:23:49.874Z,29.73
2022-12-27T00:24:52.723Z,26.85
2022-12-27T00:26:03.267Z,23.67
2022-12-27T00:27:06.253Z,22.43
2022-12-27T00:28:09.337Z,21.00
2022-12-27T00:29:12.787Z,22.55
2022-12-27T00:30:15.933Z,22.08
2022-12-27T00:31:21.014Z,21.80
2022-12-27T00:32:23.712Z,20.85
2022-12-27T00:33:28.429Z,23.90
2022-12-27T00:34:31.095Z,22.08
2022-12-27T00:35:33.843Z,28.20
2022-12-27T00:36:36.528Z,23.33
2022-12-27T00:37:39.248Z,21.70
2022-12-27T00:38:42.757Z,20.33
2022-12-27T00:39:45.476Z,22.62
2022-12-27T00:40:48.472Z,23.85
2022-12-27T00:41:51.270Z,26.10
2022-12-27T00:42:54.063Z,27.35
2022-12-27T00:43:57.150Z,28.50
2022-12-27T00:44:59.826Z,28.67
2022-12-27T00:46:03.580Z,28.67
2022-12-27T00:47:06.398Z,28.03
2022-12-27T00:48:09.325Z,26.93
2022-12-27T00:49:12.373Z,31.87
2022-12-27T00:50:15.147Z,29.73
2022-12-27T00:51:20.711Z,30.80
2022-12-27T00:52:23.544Z,32.05
2022-12-27T00:53:27.462Z,24.02
2022-12-27T00:54:30.510Z,20.73
2022-12-27T00:55:33.196Z,22.35
2022-12-27T00:56:35.936Z,22.98
2022-12-27T00:57:38.629Z,20.07
2022-12-27T00:58:41.371Z,21.27
2022-12-27T00:59:44.429Z,20.77
2022-12-27T01:00:47.744Z,42.80
2022-12-27T01:01:50.764Z,33.13
2022-12-27T01:02:53.694Z,36.33
2022-12-27T01:03:58.474Z,30.15
2022-12-27T01:05:01.868Z,34.95
2022-12-27T01:06:06.841Z,23.50
2022-12-27T01:07:09.582Z,22.00
2022-12-27T01:08:12.450Z,19.17
2022-12-27T01:09:15.259Z,22.00
2022-12-27T01:10:18.718Z,29.33
2022-12-27T01:11:21.804Z,36.30
2022-12-27T01:12:24.523Z,26.65
2022-12-27T01:13:33.880Z,31.85
2022-12-27T01:14:37.152Z,31.15
2022-12-27T01:15:42.615Z,29.12
2022-12-27T01:16:45.608Z,19.87
2022-12-27T01:17:48.386Z,19.40
2022-12-27T01:18:51.513Z,18.93
2022-12-27T01:19:54.187Z,17.57
2022-12-27T01:20:57.156Z,27.92
2022-12-27T01:22:00.342Z,19.52
2022-12-27T01:23:03.046Z,20.90
2022-12-27T01:24:07.139Z,18.75
2022-12-27T01:25:10.165Z,26.42
2022-12-27T01:26:16.967Z,18.12
2022-12-27T01:27:19.746Z,19.02
2022-12-27T01:28:22.457Z,28.58
2022-12-27T01:29:25.184Z,16.83
2022-12-27T01:30:27.885Z,17.80
2022-12-27T01:31:31.137Z,20.80
2022-12-27T01:32:35.220Z,20.42
2022-12-27T01:33:38.142Z,18.98
2022-12-27T01:34:40.882Z,27.45
2022-12-27T01:35:43.641Z,29.00
2022-12-27T01:36:46.694Z,32.70
2022-12-27T01:37:49.416Z,27.13
2022-12-27T01:38:52.393Z,21.95
2022-12-27T01:39:55.968Z,34.43
2022-12-27T01:40:58.638Z,26.40
2022-12-27T01:42:20.829Z,45.42
2022-12-27T01:43:38.433Z,20.85
2022-12-27T01:44:44.042Z,17.27
2022-12-27T01:45:47.971Z,17.52
2022-12-27T01:46:50.806Z,22.98
2022-12-27T01:48:07.641Z,20.33
2022-12-27T01:49:12.220Z,20.80
2022-12-27T01:50:15.224Z,19.05
2022-12-27T01:51:18.499Z,16.97
2022-12-27T01:52:23.626Z,16.77
2022-12-27T01:53:44.327Z,28.98
2022-12-27T01:54:47.176Z,83.65
2022-12-27T01:55:59.282Z,64.80
2022-12-27T01:57:03.786Z,39.72
2022-12-27T01:58:29.851Z,24.98
2022-12-27T01:59:34.383Z,21.10
2022-12-27T02:00:38.279Z,19.40
2022-12-27T02:01:46.989Z,18.77
2022-12-27T02:02:51.226Z,19.80
2022-12-27T02:04:01.419Z,19.63
2022-12-27T02:05:04.723Z,48.13
2022-12-27T02:06:09.742Z,27.67
2022-12-27T02:07:12.833Z,30.50
2022-12-27T02:08:44.907Z,21.12
2022-12-27T02:09:57.215Z,22.95
2022-12-27T02:11:00.885Z,23.75
2022-12-27T02:12:07.040Z,20.05
2022-12-27T02:13:10.166Z,22.35
2022-12-27T02:14:15.240Z,32.03
2022-12-27T02:15:18.629Z,24.43
2022-12-27T02:16:21.558Z,24.10
2022-12-27T02:17:28.387Z,19.85
2022-12-27T02:18:31.284Z,19.62
2022-12-27T02:19:56.260Z,17.30
2022-12-27T02:21:13.105Z,17.52
2022-12-27T02:23:11.876Z,18.20
2022-12-27T02:24:47.336Z,18.27
2022-12-27T02:25:49.959Z,17.30
2022-12-27T02:27:02.709Z,19.00
2022-12-27T02:28:40.837Z,24.20
2022-12-27T02:29:57.851Z,21.52
2022-12-27T02:31:11.932Z,34.50
2022-12-27T02:32:32.770Z,16.65
2022-12-27T02:33:42.162Z,17.90
2022-12-27T02:35:07.619Z,16.20
2022-12-27T02:36:13.910Z,16.08
2022-12-27T02:37:19.128Z,16.60
2022-12-27T02:38:33.049Z,16.95
2022-12-27T02:39:39.401Z,17.93
2022-12-27T02:41:03.935Z,19.10
2022-12-27T02:42:26.502Z,17.35
2022-12-27T02:43:50.324Z,18.87
2022-12-27T02:45:11.831Z,18.65
2022-12-27T02:46:46.622Z,19.58
2022-12-27T02:48:08.965Z,16.27
2022-12-27T02:49:47.731Z,16.27
2022-12-27T02:51:35.159Z,24.17
2022-12-27T02:53:03.562Z,18.30
2022-12-27T02:54:17.393Z,20.30
2022-12-27T02:56:09.685Z,20.53
2022-12-27T02:57:24.912Z,28.58
2022-12-27T02:58:36.340Z,17.08
2022-12-27T03:00:21.594Z,16.48
2022-12-27T03:02:39.690Z,16.40
2022-12-27T03:04:01.307Z,17.35
2022-12-27T03:05:22.582Z,16.92
2022-12-27T03:06:43.969Z,16.77
2022-12-27T03:08:16.047Z,16.67
2022-12-27T03:09:50.816Z,18.00
2022-12-27T03:11:18.247Z,15.87
2022-12-27T03:13:02.272Z,15.68
2022-12-27T03:14:51.193Z,15.85
2022-12-27T03:15:59.752Z,15.27
2022-12-27T03:17:11.762Z,15.68
2022-12-27T03:18:21.557Z,15.02
2022-12-27T03:20:10.484Z,16.15
2022-12-27T03:21:39.160Z,15.27
2022-12-27T03:23:03.495Z,16.52
2022-12-27T03:24:42.872Z,16.40
2022-12-27T03:25:49.402Z,22.87
2022-12-27T03:26:53.415Z,17.15
2022-12-27T03:28:22.065Z,31.58
2022-12-27T03:29:45.916Z,18.20
2022-12-27T03:31:11.618Z,17.20
2022-12-27T03:32:33.511Z,26.85
2022-12-27T03:33:39.906Z,18.17
2022-12-27T03:34:53.758Z,18.95
2022-12-27T03:36:21.320Z,16.27
2022-12-27T03:37:55.256Z,16.13
2022-12-27T03:39:16.128Z,16.90
2022-12-27T03:40:22.779Z,19.58
2022-12-27T03:41:52.186Z,15.88
2022-12-27T03:43:11.681Z,17.77
2022-12-27T03:44:24.650Z,16.17
2022-12-27T03:45:58.221Z,15.70
2022-12-27T03:47:26.175Z,16.58
2022-12-27T03:48:33.527Z,17.42
2022-12-27T03:49:48.605Z,18.37
2022-12-27T03:50:57.210Z,16.60
2022-12-27T03:52:21.792Z,16.40
2022-12-27T03:53:32.816Z,15.90
2022-12-27T03:54:39.331Z,15.77
2022-12-27T03:55:43.404Z,16.85
2022-12-27T03:56:46.518Z,16.05
2022-12-27T03:57:49.333Z,16.25
2022-12-27T03:58:52.886Z,16.80
2022-12-27T03:59:55.763Z,18.67
2022-12-27T04:00:58.614Z,18.85
2022-12-27T04:02:02.538Z,17.93
2022-12-27T04:03:05.309Z,17.57
2022-12-27T04:04:08.594Z,17.48
2022-12-27T04:05:11.628Z,17.05
2022-12-27T04:06:14.777Z,19.17
2022-12-27T04:07:18.006Z,19.15
2022-12-27T04:08:41.248Z,16.73
2022-12-27T04:10:02.983Z,16.35
2022-12-27T04:11:24.603Z,16.02
2022-12-27T04:12:47.027Z,17.60
2022-12-27T04:14:09.053Z,15.57
2022-12-27T04:15:30.334Z,17.00
2022-12-27T04:16:51.893Z,17.60
2022-12-27T04:18:13.706Z,15.95
2022-12-27T04:19:36.514Z,17.87
2022-12-27T04:20:58.181Z,18.17
2022-12-27T04:22:19.660Z,16.73
2022-12-27T04:23:41.677Z,17.70
2022-12-27T04:25:03.391Z,17.90
2022-12-27T04:26:25.287Z,17.17
2022-12-27T04:27:46.846Z,16.33
2022-12-27T04:29:08.511Z,18.70
2022-12-27T04:30:30.001Z,15.60
2022-12-27T04:31:51.369Z,17.37
2022-12-27T04:33:12.892Z,17.70
2022-12-27T04:34:34.790Z,18.33
2022-12-27T04:35:37.571Z,18.52
2022-12-27T04:36:40.324Z,19.60
2022-12-27T04:37:43.001Z,19.23
2022-12-27T04:38:45.907Z,20.08
2022-12-27T04:40:09.398Z,17.93
2022-12-27T04:41:30.361Z,18.27
2022-12-27T04:42:52.198Z,17.95
2022-12-27T04:44:13.127Z,18.67
2022-12-27T04:45:35.172Z,18.67
2022-12-27T04:46:56.932Z,17.85
2022-12-27T04:48:18.503Z,18.23
2022-12-27T04:49:42.548Z,18.80
2022-12-27T04:51:04.904Z,18.37
2022-12-27T04:52:41.979Z,18.77
2022-12-27T04:54:03.289Z,19.33
2022-12-27T04:55:28.285Z,19.33
2022-12-27T04:56:31.379Z,18.60
2022-12-27T04:57:34.001Z,20.52
2022-12-27T04:58:56.782Z,19.62
2022-12-27T05:00:18.104Z,20.55
2022-12-27T05:01:39.282Z,21.95
2022-12-27T05:02:42.603Z,18.52
2022-12-27T05:03:46.668Z,20.10
2022-12-27T05:04:49.454Z,20.98
2022-12-27T05:05:52.959Z,20.17
2022-12-27T05:06:57.014Z,20.83
2022-12-27T05:08:21.086Z,21.27
2022-12-27T05:09:42.576Z,20.88
2022-12-27T05:11:04.177Z,23.20
2022-12-27T05:12:28.247Z,21.65
2022-12-27T05:13:50.291Z,21.25
2022-12-27T05:14:54.171Z,21.30
2022-12-27T05:15:57.860Z,23.20
2022-12-27T05:17:00.964Z,22.92
2022-12-27T05:18:04.120Z,22.33
2022-12-27T05:19:09.078Z,22.27
2022-12-27T05:20:12.187Z,19.60
2022-12-27T05:21:15.347Z,21.35
2022-12-27T05:22:40.683Z,20.98
2022-12-27T05:24:05.575Z,21.50
2022-12-27T05:25:28.668Z,20.23
2022-12-27T05:26:32.687Z,18.95
2022-12-27T05:27:35.943Z,18.08
2022-12-27T05:28:38.678Z,18.55
2022-12-27T05:29:41.426Z,17.40
2022-12-27T05:30:44.807Z,18.10
2022-12-27T05:31:47.491Z,18.98
2022-12-27T05:32:50.220Z,21.67
2022-12-27T05:33:53.254Z,18.02
2022-12-27T05:34:55.907Z,19.92
2022-12-27T05:36:00.123Z,19.73
2022-12-27T05:37:02.764Z,22.13
2022-12-27T05:38:07.019Z,19.25
2022-12-27T05:39:09.714Z,16.37
2022-12-27T05:40:13.469Z,24.20
2022-12-27T05:41:16.558Z,20.87
2022-12-27T05:42:19.265Z,20.35
2022-12-27T05:43:21.968Z,20.55
2022-12-27T05:44:25.429Z,22.10
2022-12-27T05:45:28.906Z,22.08
2022-12-27T05:46:32.591Z,22.13
2022-12-27T05:47:35.449Z,22.02
2022-12-27T05:48:38.700Z,21.17
2022-12-27T05:49:41.483Z,20.88
2022-12-27T05:50:44.232Z,19.70
2022-12-27T05:51:48.363Z,20.53
2022-12-27T05:52:51.131Z,19.60
2022-12-27T05:53:54.985Z,22.60
2022-12-27T05:54:58.163Z,24.23
2022-12-27T05:56:01.367Z,27.80
2022-12-27T05:57:04.700Z,29.33
2022-12-27T05:58:08.402Z,28.08
2022-12-27T05:59:11.253Z,27.30
2022-12-27T06:00:14.481Z,21.75
2022-12-27T06:01:18.418Z,20.10
2022-12-27T06:02:21.612Z,23.07
2022-12-27T06:03:25.074Z,20.90
2022-12-27T06:04:27.853Z,22.05
2022-12-27T06:05:30.709Z,20.10
2022-12-27T06:06:34.508Z,24.17
2022-12-27T06:07:38.936Z,21.75
2022-12-27T06:08:41.924Z,22.40
2022-12-27T06:09:44.794Z,21.67
2022-12-27T06:10:48.052Z,20.83
2022-12-27T06:11:51.064Z,20.27
2022-12-27T06:12:53.806Z,20.17
2022-12-27T06:13:57.232Z,20.85
2022-12-27T06:14:59.939Z,22.25
2022-12-27T06:16:04.438Z,23.00
2022-12-27T06:17:07.631Z,26.42
2022-12-27T06:18:11.009Z,26.95
2022-12-27T06:19:13.729Z,27.05
2022-12-27T06:20:16.738Z,26.20
2022-12-27T06:21:21.415Z,26.77
2022-12-27T06:22:24.979Z,27.17
2022-12-27T06:23:27.637Z,25.97
2022-12-27T06:24:30.728Z,26.50
2022-12-27T06:25:33.370Z,27.20
2022-12-27T06:26:36.915Z,24.25
2022-12-27T06:27:40.593Z,24.42
2022-12-27T06:28:43.478Z,24.02
2022-12-27T06:29:46.254Z,24.77
2022-12-27T06:30:50.727Z,24.65
2022-12-27T06:31:53.468Z,24.40
2022-12-27T06:32:56.987Z,24.10
2022-12-27T06:34:00.440Z,24.80
2022-12-27T06:35:04.354Z,21.75
2022-12-27T06:36:12.411Z,22.92
2022-12-27T06:37:15.100Z,21.12
2022-12-27T06:38:18.168Z,23.83
2022-12-27T06:39:21.346Z,25.05
2022-12-27T06:40:24.031Z,24.63
2022-12-27T06:41:27.829Z,24.05
2022-12-27T06:42:31.226Z,22.40
2022-12-27T06:43:36.115Z,23.60
2022-12-27T06:44:39.174Z,27.70
2022-12-27T06:45:42.212Z,31.20
2022-12-27T06:46:46.879Z,33.58
2022-12-27T06:47:51.477Z,33.47
2022-12-27T06:48:54.863Z,33.33
2022-12-27T06:49:57.516Z,32.38
2022-12-27T06:51:05.257Z,29.87
2022-12-27T06:52:08.502Z,28.85
2022-12-27T06:53:15.477Z,29.37
2022-12-27T06:54:18.475Z,28.80
2022-12-27T06:55:21.219Z,27.40
2022-12-27T06:56:23.967Z,25.95
2022-12-27T06:57:26.726Z,26.90
2022-12-27T06:58:29.932Z,24.50
2022-12-27T06:59:32.971Z,24.40
2022-12-27T07:00:35.933Z,25.17
2022-12-27T07:01:38.937Z,25.85
2022-12-27T07:02:42.301Z,23.60
2022-12-27T07:03:49.545Z,22.27
2022-12-27T07:04:52.540Z,21.50
2022-12-27T07:05:55.690Z,21.83
2022-12-27T07:06:58.485Z,21.73
2022-12-27T07:08:01.372Z,23.98
2022-12-27T07:09:04.993Z,23.50
2022-12-27T07:10:08.471Z,23.17
2022-12-27T07:11:12.875Z,22.80
2022-12-27T07:12:16.004Z,24.92
2022-12-27T07:13:18.627Z,26.83
2022-12-27T07:14:21.373Z,28.58
2022-12-27T07:15:24.822Z,30.17
2022-12-27T07:16:29.656Z,27.60
2022-12-27T07:17:34.713Z,27.35
2022-12-27T07:18:37.452Z,26.92
2022-12-27T07:19:40.892Z,26.33
2022-12-27T07:20:43.885Z,26.48
2022-12-27T07:21:47.104Z,24.30
2022-12-27T07:22:50.403Z,24.90
2022-12-27T07:23:54.480Z,24.27
2022-12-27T07:25:01.840Z,25.90
2022-12-27T07:26:11.557Z,57.97
2022-12-27T07:27:15.361Z,32.20
2022-12-27T07:28:18.115Z,31.30
2022-12-27T07:29:20.993Z,34.55
2022-12-27T07:30:23.790Z,42.35
2022-12-27T07:31:29.852Z,41.00
2022-12-27T07:32:32.783Z,40.60
2022-12-27T07:33:37.039Z,40.58
2022-12-27T07:34:40.035Z,35.55
2022-12-27T07:35:45.246Z,36.25
2022-12-27T07:36:48.556Z,35.73
2022-12-27T07:37:51.312Z,32.23
2022-12-27T07:38:54.540Z,28.33
2022-12-27T07:39:57.318Z,25.52
2022-12-27T07:41:01.418Z,25.02
2022-12-27T07:42:08.144Z,25.50
2022-12-27T07:43:14.368Z,21.58
2022-12-27T07:44:17.346Z,21.70
2022-12-27T07:45:20.012Z,24.23
2022-12-27T07:46:24.924Z,24.83
2022-12-27T07:47:29.022Z,23.87
2022-12-27T07:48:31.849Z,25.20
2022-12-27T07:49:34.660Z,24.00
2022-12-27T07:50:37.411Z,27.40
2022-12-27T07:51:40.164Z,25.42
2022-12-27T07:52:43.264Z,25.83
2022-12-27T07:53:49.349Z,23.00
2022-12-27T07:54:52.098Z,21.67
2022-12-27T07:55:54.871Z,21.20
2022-12-27T07:56:57.613Z,21.75
2022-12-27T07:58:00.665Z,19.67
2022-12-27T07:59:03.462Z,20.50
2022-12-27T08:00:07.175Z,18.73
2022-12-27T08:01:17.091Z,19.02
2022-12-27T08:02:21.866Z,17.70
2022-12-27T08:03:24.689Z,16.17
2022-12-27T08:04:28.267Z,15.60
2022-12-27T08:05:31.460Z,15.85
2022-12-27T08:06:35.290Z,17.92
2022-12-27T08:07:39.154Z,18.12
2022-12-27T08:08:44.488Z,19.50
2022-12-27T08:09:49.042Z,18.10
2022-12-27T08:10:51.975Z,25.33
2022-12-27T08:11:55.060Z,43.10
2022-12-27T08:12:58.254Z,43.38
2022-12-27T08:14:01.098Z,30.48
2022-12-27T08:15:04.615Z,25.12
2022-12-27T08:16:17.467Z,16.80
2022-12-27T08:17:24.044Z,17.02
2022-12-27T08:18:28.329Z,15.88
2022-12-27T08:19:31.647Z,10.83
2022-12-27T08:20:34.801Z,10.97
2022-12-27T08:21:37.647Z,9.32
2022-12-27T08:22:40.782Z,7.82
2022-12-27T08:23:43.818Z,9.07
2022-12-27T08:24:46.647Z,7.62
2022-12-27T08:25:50.001Z,7.85
2022-12-27T08:26:52.783Z,8.63
2022-12-27T08:28:11.888Z,8.38
2022-12-27T08:29:15.056Z,10.95
2022-12-27T08:30:18.351Z,11.00
2022-12-27T08:31:21.098Z,11.80
2022-12-27T08:32:24.339Z,10.98
2022-12-27T08:33:28.373Z,11.20
2022-12-27T08:34:34.098Z,12.70
2022-12-27T08:35:54.821Z,12.05
2022-12-27T08:36:58.357Z,11.32
2022-12-27T08:38:02.503Z,13.38
2022-12-27T08:39:05.751Z,16.50
2022-12-27T08:40:09.968Z,16.40
2022-12-27T08:41:13.299Z,16.93
2022-12-27T08:42:15.980Z,17.07
2022-12-27T08:43:18.797Z,15.88
2022-12-27T08:44:22.119Z,15.55
2022-12-27T08:45:25.413Z,16.10
2022-12-27T08:46:30.688Z,15.70
2022-12-27T08:47:33.707Z,18.83
2022-12-27T08:48:37.955Z,21.73
2022-12-27T08:49:41.218Z,31.77
2022-12-27T08:50:44.307Z,35.50
2022-12-27T08:51:47.750Z,32.23
2022-12-27T08:52:50.754Z,27.83
2022-12-27T08:53:53.914Z,22.98
2022-12-27T08:54:56.991Z,21.55
2022-12-27T08:56:00.516Z,23.05
2022-12-27T08:57:04.027Z,23.15
2022-12-27T08:58:13.946Z,23.98
2022-12-27T08:59:19.225Z,25.27
2022-12-27T09:00:22.360Z,20.27
2022-12-27T09:01:25.993Z,21.12
2022-12-27T09:02:29.612Z,17.93
2022-12-27T09:03:32.500Z,20.43
2022-12-27T09:04:35.272Z,23.27
2022-12-27T09:05:41.967Z,20.25
2022-12-27T09:06:45.336Z,26.17
2022-12-27T09:07:48.853Z,19.20
2022-12-27T09:08:53.021Z,19.65
2022-12-27T09:09:56.467Z,19.73
2022-12-27T09:11:09.588Z,22.27
2022-12-27T09:12:13.273Z,19.60
2022-12-27T09:13:16.449Z,15.77
2022-12-27T09:14:19.197Z,17.10
2022-12-27T09:15:22.163Z,14.38
2022-12-27T09:16:30.449Z,15.63
2022-12-27T09:17:34.275Z,15.57
2022-12-27T09:18:38.650Z,23.10
2022-12-27T09:19:42.553Z,15.75
2022-12-27T09:20:45.904Z,14.73
2022-12-27T09:21:48.534Z,15.05
2022-12-27T09:22:52.252Z,13.98
2022-12-27T09:23:55.902Z,17.97
2022-12-27T09:24:58.931Z,14.73
2022-12-27T09:26:26.658Z,16.27
2022-12-27T09:27:29.880Z,28.48
2022-12-27T09:28:36.106Z,23.62
2022-12-27T09:29:43.019Z,13.50
2022-12-27T09:30:49.525Z,11.35
2022-12-27T09:31:52.588Z,10.48
2022-12-27T09:32:55.364Z,9.65
2022-12-27T09:33:59.391Z,11.65
2022-12-27T09:35:04.014Z,10.77
2022-12-27T09:36:08.489Z,8.50
2022-12-27T09:37:12.235Z,8.07
2022-12-27T09:38:14.987Z,7.55
2022-12-27T09:39:18.281Z,7.35
2022-12-27T09:40:21.533Z,5.87
2022-12-27T09:42:25.951Z,5.80
2022-12-27T09:43:18.186Z,4.35
2022-12-27T09:44:24.197Z,3.95
2022-12-27T09:45:40.396Z,3.97
2022-12-27T09:47:09.355Z,4.37
2022-12-27T09:48:19.897Z,3.87
2022-12-27T09:49:31.013Z,3.10
2022-12-27T09:50:42.493Z,2.47
2022-12-27T09:51:54.723Z,3.28
2022-12-27T09:53:22.514Z,2.95
2022-12-27T09:54:48.629Z,3.10
2022-12-27T09:55:58.065Z,3.08
2022-12-27T09:57:19.584Z,3.30
2022-12-27T09:58:28.918Z,3.10
2022-12-27T09:59:44.402Z,3.47
2022-12-27T10:00:50.336Z,3.03
2022-12-27T10:01:54.199Z,3.03
2022-12-27T10:02:59.464Z,3.03
2022-12-27T10:04:05.041Z,3.10
2022-12-27T10:05:20.939Z,2.72
2022-12-27T10:06:44.857Z,3.10
2022-12-27T10:08:20.415Z,2.95
2022-12-27T10:09:25.967Z,2.20
2022-12-27T10:10:43.755Z,2.28
2022-12-27T10:11:56.375Z,2.53
2022-12-27T10:13:21.577Z,2.10
2022-12-27T10:14:27.344Z,2.08
2022-12-27T10:16:02.944Z,2.22
2022-12-27T10:17:53.684Z,2.17
2022-12-27T10:19:18.588Z,2.58
2022-12-27T10:20:47.873Z,1.60
2022-12-27T10:22:30.729Z,1.45
2022-12-27T10:23:36.632Z,1.80
2022-12-27T10:24:46.925Z,1.58
2022-12-27T10:25:58.728Z,1.90
2022-12-27T10:27:02.837Z,1.87
2022-12-27T10:28:29.089Z,2.00
2022-12-27T10:29:33.151Z,1.90
2022-12-27T10:30:36.306Z,3.25
2022-12-27T10:31:42.841Z,2.47
2022-12-27T10:32:46.776Z,2.27
2022-12-27T10:33:51.391Z,2.70
2022-12-27T10:35:02.859Z,2.30
2022-12-27T10:36:13.182Z,2.00
2022-12-27T10:37:16.490Z,1.60
2022-12-27T10:38:20.288Z,2.00
2022-12-27T10:39:30.897Z,1.73
2022-12-27T10:40:51.421Z,2.17
2022-12-27T10:42:08.413Z,2.85
2022-12-27T10:43:18.494Z,4.43
2022-12-27T10:44:23.920Z,3.30
2022-12-27T10:45:36.501Z,2.87
2022-12-27T10:46:42.577Z,3.35
2022-12-27T10:47:46.107Z,3.53
2022-12-27T10:49:20.000Z,4.37
2022-12-27T10:50:17.372Z,5.00
2022-12-27T10:51:20.711Z,5.05
2022-12-27T10:52:24.496Z,5.53
2022-12-27T10:53:32.726Z,8.32
2022-12-27T10:54:49.183Z,8.55
2022-12-27T10:55:51.905Z,8.23
2022-12-27T10:56:56.090Z,9.10
2022-12-27T10:57:58.781Z,9.82
2022-12-27T10:59:22.758Z,9.98
2022-12-27T11:00:25.785Z,9.70
2022-12-27T11:01:32.570Z,7.60
2022-12-27T11:02:52.085Z,7.20
2022-12-27T11:04:24.605Z,6.30
2022-12-27T11:05:33.181Z,5.47
2022-12-27T11:06:36.483Z,7.12
2022-12-27T11:07:39.180Z,6.87
2022-12-27T11:08:43.896Z,5.80
2022-12-27T11:09:51.016Z,5.20
2022-12-27T11:11:14.857Z,4.30
2022-12-27T11:12:25.853Z,5.47
2022-12-27T11:13:28.487Z,5.20
2022-12-27T11:14:31.622Z,4.37
2022-12-27T11:15:37.912Z,3.60
2022-12-27T11:16:41.833Z,3.50
2022-12-27T11:17:52.014Z,4.72
2022-12-27T11:18:58.524Z,4.57
2022-12-27T11:20:25.931Z,4.00
2022-12-27T11:21:30.791Z,4.72
2022-12-27T11:22:34.166Z,4.78
2022-12-27T11:23:44.386Z,3.63
2022-12-27T11:24:49.183Z,4.23
2022-12-27T11:25:56.068Z,5.18
2022-12-27T11:27:00.200Z,3.72
2022-12-27T11:28:22.901Z,3.30
2022-12-27T11:29:28.911Z,3.95
2022-12-27T11:30:36.229Z,4.65
2022-12-27T11:31:46.558Z,6.18
2022-12-27T11:32:49.741Z,5.97
2022-12-27T11:33:58.495Z,8.88
2022-12-27T11:35:01.255Z,9.20
2022-12-27T11:36:05.256Z,8.93
2022-12-27T11:37:14.574Z,4.65
2022-12-27T11:38:30.467Z,3.15
2022-12-27T11:39:39.470Z,2.70
2022-12-27T11:40:44.508Z,2.67
2022-12-27T11:41:53.067Z,2.75
2022-12-27T11:43:04.778Z,2.97
2022-12-27T11:44:15.105Z,2.53
2022-12-27T11:45:18.528Z,3.70
2022-12-27T11:46:39.526Z,2.30
2022-12-27T11:47:59.341Z,4.07
2022-12-27T11:49:07.062Z,3.67
2022-12-27T11:50:27.781Z,2.10
2022-12-27T11:51:39.967Z,2.25
2022-12-27T11:52:55.021Z,3.30
2022-12-27T11:54:04.206Z,3.05
2022-12-27T11:55:33.879Z,2.20
2022-12-27T11:57:06.692Z,2.40
2022-12-27T11:58:24.461Z,3.62
2022-12-27T11:59:53.867Z,4.30
2022-12-27T12:01:15.669Z,5.03
2022-12-27T12:02:32.534Z,3.62
2022-12-27T12:03:45.544Z,2.33
2022-12-27T12:05:18.496Z,2.83
2022-12-27T12:06:39.990Z,2.15
2022-12-27T12:07:49.760Z,1.73
2022-12-27T12:09:20.977Z,4.40
2022-12-27T12:10:54.988Z,3.33
2022-12-27T12:12:10.019Z,2.40
2022-12-27T12:13:35.474Z,2.13
2022-12-27T12:14:50.819Z,2.10
2022-12-27T12:16:15.104Z,2.22
2022-12-27T12:17:59.944Z,4.10
2022-12-27T12:19:41.520Z,4.05
2022-12-27T12:21:18.628Z,4.75
2022-12-27T12:22:52.809Z,4.50
2022-12-27T12:24:27.521Z,5.20
2022-12-27T12:25:30.432Z,4.55
2022-12-27T12:27:12.003Z,3.70
2022-12-27T12:28:56.175Z,2.80
2022-12-27T12:30:27.283Z,6.43
2022-12-27T12:31:47.333Z,14.05
2022-12-27T12:32:55.950Z,6.80
2022-12-27T12:34:07.916Z,6.85
2022-12-27T12:35:19.183Z,4.15
2022-12-27T12:36:41.063Z,3.78
2022-12-27T12:38:03.831Z,3.30
2022-12-27T12:39:34.083Z,2.90
2022-12-27T12:41:02.197Z,6.18
2022-12-27T12:42:22.028Z,4.87
2022-12-27T12:44:07.375Z,4.90
2022-12-27T12:45:16.557Z,5.87
2022-12-27T12:46:33.490Z,5.57
2022-12-27T12:48:02.536Z,6.93
2022-12-27T12:49:31.154Z,7.70
2022-12-27T12:51:04.458Z,6.72
2022-12-27T12:52:09.956Z,12.98
2022-12-27T12:53:46.694Z,14.30
2022-12-27T12:55:38.335Z,20.37
2022-12-27T12:56:44.607Z,9.10
2022-12-27T12:58:00.014Z,8.90
2022-12-27T12:59:42.596Z,8.23
2022-12-27T13:01:10.842Z,8.25
2022-12-27T13:02:45.307Z,15.52
2022-12-27T13:03:57.972Z,8.30
2022-12-27T13:05:14.831Z,7.18
2022-12-27T13:06:45.927Z,9.50
2022-12-27T13:07:51.305Z,12.27
2022-12-27T13:09:10.232Z,9.15
2022-12-27T13:10:35.075Z,9.37
2022-12-27T13:11:48.425Z,12.63
2022-12-27T13:13:00.028Z,12.23
2022-12-27T13:14:28.068Z,9.95
2022-12-27T13:15:57.331Z,8.88
2022-12-27T13:17:22.308Z,8.85
2022-12-27T13:18:40.234Z,8.73
2022-12-27T13:19:58.155Z,7.45
2022-12-27T13:21:10.560Z,8.50
2022-12-27T13:22:45.111Z,8.63
2022-12-27T13:23:50.722Z,8.60
2022-12-27T13:25:21.734Z,7.53
2022-12-27T13:26:37.179Z,7.68
2022-12-27T13:28:18.477Z,10.43
2022-12-27T13:30:03.168Z,10.48
2022-12-27T13:31:39.074Z,13.50
2022-12-27T13:32:45.015Z,11.38
2022-12-27T13:34:03.913Z,10.85
2022-12-27T13:35:16.270Z,10.70
2022-12-27T13:36:45.351Z,12.48
2022-12-27T13:38:10.729Z,12.20
2022-12-27T13:39:13.364Z,11.27
2022-12-27T13:40:45.750Z,9.32
2022-12-27T13:42:07.078Z,9.38
2022-12-27T13:43:42.598Z,7.65
2022-12-27T13:45:02.450Z,10.57
2022-12-27T13:46:38.201Z,10.43
2022-12-27T13:47:57.986Z,11.35
2022-12-27T13:49:25.225Z,10.48
2022-12-27T13:50:43.853Z,10.88
2022-12-27T13:51:56.591Z,18.13
2022-12-27T13:53:29.846Z,10.77
2022-12-27T13:54:45.702Z,12.07
2022-12-27T13:56:52.220Z,11.05
2022-12-27T13:58:05.502Z,14.40
2022-12-27T13:59:33.176Z,18.73
2022-12-27T14:00:44.259Z,18.60
2022-12-27T14:02:25.170Z,16.85
2022-12-27T14:03:46.098Z,11.48
2022-12-27T14:04:59.310Z,11.88
2022-12-27T14:06:35.968Z,11.03
2022-12-27T14:08:06.930Z,13.00
2022-12-27T14:09:47.074Z,11.35
2022-12-27T14:10:55.330Z,10.20
2022-12-27T14:12:40.330Z,12.43
2022-12-27T14:13:44.280Z,19.55
2022-12-27T14:14:48.323Z,16.58
2022-12-27T14:16:22.513Z,16.48
2022-12-27T14:17:49.228Z,13.48
2022-12-27T14:18:57.868Z,11.95
2022-12-27T14:20:15.930Z,11.73
2022-12-27T14:21:39.950Z,11.20
2022-12-27T14:22:50.977Z,12.25
2022-12-27T14:24:06.321Z,14.75
2022-12-27T14:25:34.407Z,13.70
2022-12-27T14:27:14.288Z,23.30
2022-12-27T14:28:45.110Z,19.10
2022-12-27T14:30:22.089Z,24.27
2022-12-27T14:32:01.985Z,31.05
2022-12-27T14:33:26.540Z,28.10
2022-12-27T14:35:00.353Z,52.90
2022-12-27T14:36:09.922Z,14.03
2022-12-27T14:37:16.217Z,15.60
2022-12-27T14:38:19.503Z,18.33
2022-12-27T14:39:31.207Z,19.45
2022-12-27T14:40:56.644Z,19.42
2022-12-27T14:42:18.585Z,21.10
2022-12-27T14:43:47.681Z,52.72
2022-12-27T14:45:14.966Z,32.80
2022-12-27T14:46:43.471Z,29.83
2022-12-27T14:47:56.248Z,12.97
2022-12-27T14:49:26.457Z,12.17
2022-12-27T14:50:57.763Z,12.50
2022-12-27T14:52:34.239Z,13.25
2022-12-27T14:53:48.903Z,15.50
2022-12-27T14:55:06.673Z,20.95
2022-12-27T14:56:30.936Z,8.85
2022-12-27T14:57:43.008Z,10.98
2022-12-27T14:59:18.118Z,13.65
2022-12-27T15:00:22.681Z,11.90
2022-12-27T15:01:37.483Z,10.10
2022-12-27T15:02:55.349Z,11.13
2022-12-27T15:03:58.484Z,14.45
2022-12-27T15:05:40.960Z,10.15
2022-12-27T15:07:02.800Z,12.30
2022-12-27T15:08:26.215Z,18.02
2022-12-27T15:09:48.598Z,17.98
2022-12-27T15:11:16.438Z,19.98
2022-12-27T15:12:50.129Z,18.48
2022-12-27T15:14:28.788Z,21.90
2022-12-27T15:15:34.760Z,28.47
2022-12-27T15:17:04.937Z,22.83
2022-12-27T15:18:25.518Z,27.70
2022-12-27T15:19:33.869Z,29.48
2022-12-27T15:21:16.894Z,24.50
2022-12-27T15:22:48.196Z,24.27
2022-12-27T15:23:54.230Z,20.98
2022-12-27T15:25:13.367Z,26.65
2022-12-27T15:26:37.735Z,38.45
2022-12-27T15:27:58.345Z,49.03
2022-12-27T15:29:20.397Z,46.80
2022-12-27T15:30:25.428Z,37.00
2022-12-27T15:31:46.821Z,35.28
2022-12-27T15:33:02.469Z,39.72
2022-12-27T15:34:14.516Z,39.08